sensor_id;sensor_type;location;lat;lon;timestamp;P1;durP1;ratioP1;P2;durP2;ratioP2
21091;SDS011;10704;42.678;23.288;2023-12-28T00:01:29;31.67;;;13.95;;
21091;SDS011;10704;42.678;23.288;2023-12-28T00:03:55;26.45;;;12.30;;
21091;SDS011;10704;42.678;23.288;2023-12-28T00:06:21;24.20;;;12.73;;
21091;SDS011;10704;42.678;23.288;2023-12-28T00:08:47;35.50;;;12.27;;
21091;SDS011;10704;42.678;23.288;2023-12-28T00:11:14;22.20;;;10.10;;
21091;SDS011;10704;42.678;23.288;2023-12-28T00:13:39;23.20;;;11.30;;
21091;SDS011;10704;42.678;23.288;2023-12-28T00:16:06;25.17;;;11.07;;
21091;SDS011;10704;42.678;23.288;2023-12-28T00:18:31;25.90;;;13.85;;
21091;SDS011;10704;42.678;23.288;2023-12-28T00:20:57;25.70;;;13.05;;
21091;SDS011;10704;42.678;23.288;2023-12-28T00:23:23;24.52;;;12.70;;
21091;SDS011;10704;42.678;23.288;2023-12-28T00:25:49;26.55;;;13.43;;
21091;SDS011;10704;42.678;23.288;2023-12-28T00:28:15;24.23;;;12.55;;
21091;SDS011;10704;42.678;23.288;2023-12-28T00:30:41;23.13;;;11.65;;
21091;SDS011;10704;42.678;23.288;2023-12-28T00:33:07;25.05;;;11.65;;
21091;SDS011;10704;42.678;23.288;2023-12-28T00:35:33;22.55;;;12.43;;
21091;SDS011;10704;42.678;23.288;2023-12-28T00:37:59;28.67;;;12.50;;
21091;SDS011;10704;42.678;23.288;2023-12-28T00:40:25;25.85;;;12.57;;
21091;SDS011;10704;42.678;23.288;2023-12-28T00:42:51;23.75;;;12.40;;
21091;SDS011;10704;42.678;23.288;2023-12-28T00:48:02;26.63;;;12.77;;
21091;SDS011;10704;42.678;23.288;2023-12-28T00:50:28;25.98;;;12.23;;
21091;SDS011;10704;42.678;23.288;2023-12-28T00:52:57;30.30;;;13.65;;
21091;SDS011;10704;42.678;23.288;2023-12-28T00:55:22;26.65;;;13.52;;
21091;SDS011;10704;42.678;23.288;2023-12-28T00:57:48;28.20;;;12.98;;
21091;SDS011;10704;42.678;23.288;2023-12-28T01:00:14;25.95;;;12.27;;
21091;SDS011;10704;42.678;23.288;2023-12-28T01:02:41;31.90;;;13.50;;
21091;SDS011;10704;42.678;23.288;2023-12-28T01:05:08;27.33;;;13.43;;
21091;SDS011;10704;42.678;23.288;2023-12-28T01:07:34;23.08;;;12.45;;
21091;SDS011;10704;42.678;23.288;2023-12-28T01:10:00;32.70;;;13.80;;
21091;SDS011;10704;42.678;23.288;2023-12-28T01:12:26;28.30;;;12.55;;
21091;SDS011;10704;42.678;23.288;2023-12-28T01:14:52;32.58;;;15.50;;
21091;SDS011;10704;42.678;23.288;2023-12-28T01:17:18;30.48;;;14.00;;
21091;SDS011;10704;42.678;23.288;2023-12-28T01:19:44;34.45;;;14.50;;
21091;SDS011;10704;42.678;23.288;2023-12-28T01:22:10;34.50;;;14.00;;
21091;SDS011;10704;42.678;23.288;2023-12-28T01:24:36;35.80;;;18.70;;
21091;SDS011;10704;42.678;23.288;2023-12-28T01:27:02;40.20;;;22.20;;
21091;SDS011;10704;42.678;23.288;2023-12-28T01:29:28;35.85;;;17.63;;
21091;SDS011;10704;42.678;23.288;2023-12-28T01:31:54;32.20;;;14.85;;
21091;SDS011;10704;42.678;23.288;2023-12-28T01:34:20;31.08;;;15.85;;
21091;SDS011;10704;42.678;23.288;2023-12-28T01:36:46;27.38;;;14.32;;
21091;SDS011;10704;42.678;23.288;2023-12-28T01:39:12;34.88;;;16.40;;
21091;SDS011;10704;42.678;23.288;2023-12-28T01:41:40;40.88;;;16.42;;
21091;SDS011;10704;42.678;23.288;2023-12-28T01:44:06;33.15;;;15.93;;
21091;SDS011;10704;42.678;23.288;2023-12-28T01:46:32;34.00;;;15.63;;
21091;SDS011;10704;42.678;23.288;2023-12-28T01:48:59;42.20;;;17.30;;
21091;SDS011;10704;42.678;23.288;2023-12-28T01:51:26;28.23;;;16.13;;
21091;SDS011;10704;42.678;23.288;2023-12-28T01:53:53;29.10;;;14.90;;
21091;SDS011;10704;42.678;23.288;2023-12-28T01:56:20;31.48;;;16.15;;
21091;SDS011;10704;42.678;23.288;2023-12-28T01:58:48;31.10;;;15.82;;
21091;SDS011;10704;42.678;23.288;2023-12-28T02:01:15;33.92;;;16.48;;
21091;SDS011;10704;42.678;23.288;2023-12-28T02:03:42;36.30;;;16.70;;
21091;SDS011;10704;42.678;23.288;2023-12-28T02:06:09;34.53;;;17.05;;
21091;SDS011;10704;42.678;23.288;2023-12-28T02:08:36;34.40;;;17.10;;
21091;SDS011;10704;42.678;23.288;2023-12-28T02:11:02;34.33;;;16.95;;
21091;SDS011;10704;42.678;23.288;2023-12-28T02:13:28;35.35;;;18.17;;
21091;SDS011;10704;42.678;23.288;2023-12-28T02:15:56;34.42;;;17.85;;
21091;SDS011;10704;42.678;23.288;2023-12-28T02:18:30;35.75;;;17.92;;
21091;SDS011;10704;42.678;23.288;2023-12-28T02:21:03;38.10;;;18.10;;
21091;SDS011;10704;42.678;23.288;2023-12-28T02:23:34;32.85;;;17.52;;
21091;SDS011;10704;42.678;23.288;2023-12-28T02:26:00;31.75;;;16.75;;
21091;SDS011;10704;42.678;23.288;2023-12-28T02:28:26;38.20;;;18.58;;
21091;SDS011;10704;42.678;23.288;2023-12-28T02:30:52;39.05;;;18.77;;
21091;SDS011;10704;42.678;23.288;2023-12-28T02:35:51;29.40;;;17.20;;
21091;SDS011;10704;42.678;23.288;2023-12-28T02:38:23;34.88;;;16.42;;
21091;SDS011;10704;42.678;23.288;2023-12-28T02:40:49;30.42;;;16.25;;
21091;SDS011;10704;42.678;23.288;2023-12-28T02:43:16;29.02;;;14.43;;
21091;SDS011;10704;42.678;23.288;2023-12-28T02:45:42;26.42;;;13.98;;
21091;SDS011;10704;42.678;23.288;2023-12-28T02:48:08;27.10;;;13.68;;
21091;SDS011;10704;42.678;23.288;2023-12-28T02:50:34;30.60;;;16.40;;
21091;SDS011;10704;42.678;23.288;2023-12-28T02:53:00;29.15;;;15.70;;
21091;SDS011;10704;42.678;23.288;2023-12-28T02:55:26;28.55;;;15.35;;
21091;SDS011;10704;42.678;23.288;2023-12-28T02:57:53;31.02;;;17.20;;
21091;SDS011;10704;42.678;23.288;2023-12-28T03:00:20;36.42;;;19.65;;
21091;SDS011;10704;42.678;23.288;2023-12-28T03:02:47;47.88;;;25.42;;
21091;SDS011;10704;42.678;23.288;2023-12-28T03:05:13;42.85;;;24.33;;
21091;SDS011;10704;42.678;23.288;2023-12-28T03:07:39;44.17;;;24.70;;
21091;SDS011;10704;42.678;23.288;2023-12-28T03:10:06;43.72;;;23.60;;
21091;SDS011;10704;42.678;23.288;2023-12-28T03:12:32;46.08;;;24.33;;
21091;SDS011;10704;42.678;23.288;2023-12-28T03:15:01;45.33;;;24.80;;
21091;SDS011;10704;42.678;23.288;2023-12-28T03:17:28;41.97;;;24.95;;
21091;SDS011;10704;42.678;23.288;2023-12-28T03:19:56;38.50;;;21.02;;
21091;SDS011;10704;42.678;23.288;2023-12-28T03:22:23;43.13;;;22.63;;
21091;SDS011;10704;42.678;23.288;2023-12-28T03:24:50;37.65;;;22.77;;
21091;SDS011;10704;42.678;23.288;2023-12-28T03:27:16;47.30;;;23.67;;
21091;SDS011;10704;42.678;23.288;2023-12-28T03:29:42;44.08;;;22.17;;
21091;SDS011;10704;42.678;23.288;2023-12-28T03:32:10;43.53;;;23.17;;
21091;SDS011;10704;42.678;23.288;2023-12-28T03:34:36;44.67;;;23.83;;
21091;SDS011;10704;42.678;23.288;2023-12-28T03:37:03;40.50;;;22.85;;
21091;SDS011;10704;42.678;23.288;2023-12-28T03:39:29;43.75;;;21.73;;
21091;SDS011;10704;42.678;23.288;2023-12-28T03:41:55;42.55;;;21.17;;
21091;SDS011;10704;42.678;23.288;2023-12-28T03:44:21;39.03;;;20.45;;
21091;SDS011;10704;42.678;23.288;2023-12-28T03:46:48;40.83;;;21.02;;
21091;SDS011;10704;42.678;23.288;2023-12-28T03:49:15;37.95;;;19.40;;
21091;SDS011;10704;42.678;23.288;2023-12-28T03:51:45;37.05;;;19.90;;
21091;SDS011;10704;42.678;23.288;2023-12-28T03:54:12;44.30;;;22.20;;
21091;SDS011;10704;42.678;23.288;2023-12-28T03:56:41;34.85;;;20.33;;
21091;SDS011;10704;42.678;23.288;2023-12-28T03:59:08;42.75;;;22.17;;
21091;SDS011;10704;42.678;23.288;2023-12-28T04:01:37;42.45;;;22.08;;
21091;SDS011;10704;42.678;23.288;2023-12-28T04:04:03;45.78;;;21.48;;
21091;SDS011;10704;42.678;23.288;2023-12-28T04:06:29;42.65;;;23.08;;
21091;SDS011;10704;42.678;23.288;2023-12-28T04:08:56;43.97;;;24.33;;
21091;SDS011;10704;42.678;23.288;2023-12-28T04:11:22;45.15;;;22.67;;
21091;SDS011;10704;42.678;23.288;2023-12-28T04:13:48;44.50;;;22.58;;
21091;SDS011;10704;42.678;23.288;2023-12-28T04:16:14;39.72;;;21.90;;
21091;SDS011;10704;42.678;23.288;2023-12-28T04:18:41;38.38;;;21.13;;
21091;SDS011;10704;42.678;23.288;2023-12-28T04:21:08;37.67;;;19.35;;
21091;SDS011;10704;42.678;23.288;2023-12-28T04:23:39;34.17;;;19.15;;
21091;SDS011;10704;42.678;23.288;2023-12-28T04:26:06;38.67;;;21.65;;
21091;SDS011;10704;42.678;23.288;2023-12-28T04:28:33;34.92;;;19.50;;
21091;SDS011;10704;42.678;23.288;2023-12-28T04:31:05;45.72;;;21.23;;
21091;SDS011;10704;42.678;23.288;2023-12-28T04:33:32;34.85;;;19.92;;
21091;SDS011;10704;42.678;23.288;2023-12-28T04:36:02;36.08;;;19.60;;
21091;SDS011;10704;42.678;23.288;2023-12-28T04:38:31;35.05;;;18.73;;
21091;SDS011;10704;42.678;23.288;2023-12-28T04:40:59;37.72;;;20.48;;
21091;SDS011;10704;42.678;23.288;2023-12-28T04:43:25;38.75;;;20.95;;
21091;SDS011;10704;42.678;23.288;2023-12-28T04:45:51;40.78;;;21.98;;
21091;SDS011;10704;42.678;23.288;2023-12-28T04:48:18;40.80;;;20.85;;
21091;SDS011;10704;42.678;23.288;2023-12-28T04:50:49;39.60;;;21.48;;
21091;SDS011;10704;42.678;23.288;2023-12-28T04:53:15;38.97;;;22.13;;
21091;SDS011;10704;42.678;23.288;2023-12-28T04:55:41;39.13;;;21.63;;
21091;SDS011;10704;42.678;23.288;2023-12-28T04:58:07;44.33;;;21.88;;
21091;SDS011;10704;42.678;23.288;2023-12-28T05:00:33;41.90;;;22.30;;
21091;SDS011;10704;42.678;23.288;2023-12-28T05:02:59;37.58;;;21.48;;
21091;SDS011;10704;42.678;23.288;2023-12-28T05:05:25;40.80;;;21.15;;
21091;SDS011;10704;42.678;23.288;2023-12-28T05:07:51;37.70;;;20.52;;
21091;SDS011;10704;42.678;23.288;2023-12-28T05:10:17;39.85;;;21.15;;
21091;SDS011;10704;42.678;23.288;2023-12-28T05:12:43;44.20;;;24.25;;
21091;SDS011;10704;42.678;23.288;2023-12-28T05:15:09;43.15;;;23.58;;
21091;SDS011;10704;42.678;23.288;2023-12-28T05:17:35;40.10;;;21.65;;
21091;SDS011;10704;42.678;23.288;2023-12-28T05:20:01;38.42;;;20.88;;
21091;SDS011;10704;42.678;23.288;2023-12-28T05:22:27;36.75;;;20.80;;
21091;SDS011;10704;42.678;23.288;2023-12-28T05:24:53;37.97;;;20.70;;
21091;SDS011;10704;42.678;23.288;2023-12-28T05:27:18;46.90;;;23.73;;
21091;SDS011;10704;42.678;23.288;2023-12-28T05:29:44;42.75;;;22.38;;
21091;SDS011;10704;42.678;23.288;2023-12-28T05:32:10;42.63;;;22.13;;
21091;SDS011;10704;42.678;23.288;2023-12-28T05:34:36;40.03;;;22.83;;
21091;SDS011;10704;42.678;23.288;2023-12-28T05:37:02;35.85;;;20.13;;
21091;SDS011;10704;42.678;23.288;2023-12-28T05:39:28;43.08;;;21.70;;
21091;SDS011;10704;42.678;23.288;2023-12-28T05:41:54;40.33;;;21.67;;
21091;SDS011;10704;42.678;23.288;2023-12-28T05:44:20;40.63;;;20.20;;
21091;SDS011;10704;42.678;23.288;2023-12-28T05:46:46;43.55;;;22.42;;
21091;SDS011;10704;42.678;23.288;2023-12-28T05:49:12;39.90;;;21.27;;
21091;SDS011;10704;42.678;23.288;2023-12-28T05:51:41;42.50;;;21.55;;
21091;SDS011;10704;42.678;23.288;2023-12-28T05:54:07;39.40;;;20.20;;
21091;SDS011;10704;42.678;23.288;2023-12-28T05:56:34;40.03;;;19.98;;
21091;SDS011;10704;42.678;23.288;2023-12-28T05:59:00;33.60;;;20.00;;
21091;SDS011;10704;42.678;23.288;2023-12-28T06:01:26;38.17;;;19.73;;
21091;SDS011;10704;42.678;23.288;2023-12-28T06:03:52;38.53;;;20.05;;
21091;SDS011;10704;42.678;23.288;2023-12-28T06:06:19;36.63;;;20.55;;
21091;SDS011;10704;42.678;23.288;2023-12-28T06:08:45;36.30;;;20.17;;
21091;SDS011;10704;42.678;23.288;2023-12-28T06:11:11;36.88;;;18.67;;
21091;SDS011;10704;42.678;23.288;2023-12-28T06:13:37;44.92;;;20.73;;
21091;SDS011;10704;42.678;23.288;2023-12-28T06:16:03;35.00;;;18.45;;
21091;SDS011;10704;42.678;23.288;2023-12-28T06:18:29;36.15;;;17.98;;
21091;SDS011;10704;42.678;23.288;2023-12-28T06:20:56;31.98;;;17.70;;
21091;SDS011;10704;42.678;23.288;2023-12-28T06:23:22;37.53;;;18.10;;
21091;SDS011;10704;42.678;23.288;2023-12-28T06:25:48;33.22;;;17.42;;
21091;SDS011;10704;42.678;23.288;2023-12-28T06:28:14;45.45;;;23.67;;
21091;SDS011;10704;42.678;23.288;2023-12-28T06:30:39;38.83;;;19.15;;
21091;SDS011;10704;42.678;23.288;2023-12-28T06:33:05;37.92;;;18.58;;
21091;SDS011;10704;42.678;23.288;2023-12-28T06:35:31;43.30;;;20.27;;
21091;SDS011;10704;42.678;23.288;2023-12-28T06:37:57;38.17;;;19.90;;
21091;SDS011;10704;42.678;23.288;2023-12-28T06:40:23;38.40;;;19.63;;
21091;SDS011;10704;42.678;23.288;2023-12-28T06:42:49;34.50;;;20.27;;
21091;SDS011;10704;42.678;23.288;2023-12-28T06:45:15;37.70;;;21.63;;
21091;SDS011;10704;42.678;23.288;2023-12-28T06:47:42;38.78;;;20.92;;
21091;SDS011;10704;42.678;23.288;2023-12-28T06:50:08;39.47;;;22.20;;
21091;SDS011;10704;42.678;23.288;2023-12-28T06:52:34;43.65;;;22.75;;
21091;SDS011;10704;42.678;23.288;2023-12-28T06:55:00;41.83;;;21.38;;
21091;SDS011;10704;42.678;23.288;2023-12-28T06:57:26;37.67;;;21.58;;
21091;SDS011;10704;42.678;23.288;2023-12-28T06:59:52;38.25;;;22.75;;
21091;SDS011;10704;42.678;23.288;2023-12-28T07:02:19;42.40;;;22.65;;
21091;SDS011;10704;42.678;23.288;2023-12-28T07:04:45;43.10;;;23.27;;
21091;SDS011;10704;42.678;23.288;2023-12-28T07:07:11;41.47;;;22.92;;
21091;SDS011;10704;42.678;23.288;2023-12-28T07:09:37;44.25;;;23.20;;
21091;SDS011;10704;42.678;23.288;2023-12-28T07:12:03;47.58;;;24.20;;
21091;SDS011;10704;42.678;23.288;2023-12-28T07:14:29;43.80;;;24.25;;
21091;SDS011;10704;42.678;23.288;2023-12-28T07:16:55;38.78;;;22.08;;
21091;SDS011;10704;42.678;23.288;2023-12-28T07:19:21;43.03;;;21.27;;
21091;SDS011;10704;42.678;23.288;2023-12-28T07:21:47;37.08;;;21.30;;
21091;SDS011;10704;42.678;23.288;2023-12-28T07:24:13;37.25;;;19.70;;
21091;SDS011;10704;42.678;23.288;2023-12-28T07:26:39;36.72;;;20.00;;
21091;SDS011;10704;42.678;23.288;2023-12-28T07:29:04;33.25;;;18.70;;
21091;SDS011;10704;42.678;23.288;2023-12-28T07:31:30;32.97;;;17.70;;
21091;SDS011;10704;42.678;23.288;2023-12-28T07:33:57;33.63;;;16.95;;
21091;SDS011;10704;42.678;23.288;2023-12-28T07:36:23;34.90;;;19.10;;
21091;SDS011;10704;42.678;23.288;2023-12-28T07:38:49;28.40;;;16.50;;
21091;SDS011;10704;42.678;23.288;2023-12-28T07:41:15;30.70;;;16.17;;
21091;SDS011;10704;42.678;23.288;2023-12-28T07:43:41;31.42;;;16.45;;
21091;SDS011;10704;42.678;23.288;2023-12-28T07:46:07;31.23;;;16.35;;
21091;SDS011;10704;42.678;23.288;2023-12-28T07:48:33;27.65;;;15.82;;
21091;SDS011;10704;42.678;23.288;2023-12-28T07:51:06;29.02;;;17.00;;
21091;SDS011;10704;42.678;23.288;2023-12-28T07:53:32;31.88;;;16.52;;
21091;SDS011;10704;42.678;23.288;2023-12-28T07:55:58;32.00;;;16.75;;
21091;SDS011;10704;42.678;23.288;2023-12-28T07:58:24;29.17;;;16.75;;
21091;SDS011;10704;42.678;23.288;2023-12-28T08:00:50;30.50;;;16.75;;
21091;SDS011;10704;42.678;23.288;2023-12-28T08:03:17;32.53;;;17.30;;
21091;SDS011;10704;42.678;23.288;2023-12-28T08:05:43;31.63;;;17.88;;
21091;SDS011;10704;42.678;23.288;2023-12-28T08:08:09;35.60;;;20.50;;
21091;SDS011;10704;42.678;23.288;2023-12-28T08:10:34;39.85;;;21.90;;
21091;SDS011;10704;42.678;23.288;2023-12-28T08:13:00;41.47;;;22.90;;
21091;SDS011;10704;42.678;23.288;2023-12-28T08:15:26;41.05;;;24.13;;
21091;SDS011;10704;42.678;23.288;2023-12-28T08:17:52;33.38;;;20.10;;
21091;SDS011;10704;42.678;23.288;2023-12-28T08:20:18;34.47;;;19.40;;
21091;SDS011;10704;42.678;23.288;2023-12-28T08:22:44;31.85;;;18.33;;
21091;SDS011;10704;42.678;23.288;2023-12-28T08:25:10;34.55;;;19.73;;
21091;SDS011;10704;42.678;23.288;2023-12-28T08:27:36;31.42;;;17.55;;
21091;SDS011;10704;42.678;23.288;2023-12-28T08:30:02;25.88;;;16.67;;
21091;SDS011;10704;42.678;23.288;2023-12-28T08:32:30;29.10;;;16.00;;
21091;SDS011;10704;42.678;23.288;2023-12-28T08:34:56;24.20;;;13.93;;
21091;SDS011;10704;42.678;23.288;2023-12-28T08:37:21;26.92;;;13.48;;
21091;SDS011;10704;42.678;23.288;2023-12-28T08:39:47;23.17;;;12.73;;
21091;SDS011;10704;42.678;23.288;2023-12-28T08:42:13;23.38;;;14.50;;
21091;SDS011;10704;42.678;23.288;2023-12-28T08:44:39;26.50;;;14.00;;
21091;SDS011;10704;42.678;23.288;2023-12-28T08:47:05;23.85;;;14.82;;
21091;SDS011;10704;42.678;23.288;2023-12-28T08:49:31;24.20;;;13.98;;
21091;SDS011;10704;42.678;23.288;2023-12-28T08:51:58;20.45;;;13.35;;
21091;SDS011;10704;42.678;23.288;2023-12-28T08:54:24;24.70;;;13.10;;
21091;SDS011;10704;42.678;23.288;2023-12-28T08:56:50;25.00;;;12.60;;
21091;SDS011;10704;42.678;23.288;2023-12-28T08:59:16;24.15;;;12.02;;
21091;SDS011;10704;42.678;23.288;2023-12-28T09:01:42;23.38;;;13.85;;
21091;SDS011;10704;42.678;23.288;2023-12-28T09:04:08;25.58;;;15.15;;
21091;SDS011;10704;42.678;23.288;2023-12-28T09:06:34;26.48;;;13.57;;
21091;SDS011;10704;42.678;23.288;2023-12-28T09:09:00;31.48;;;15.27;;
21091;SDS011;10704;42.678;23.288;2023-12-28T09:11:27;26.70;;;14.70;;
21091;SDS011;10704;42.678;23.288;2023-12-28T09:13:54;21.58;;;13.38;;
21091;SDS011;10704;42.678;23.288;2023-12-28T09:16:20;23.27;;;13.73;;
21091;SDS011;10704;42.678;23.288;2023-12-28T09:18:45;17.13;;;12.63;;
21091;SDS011;10704;42.678;23.288;2023-12-28T09:21:12;21.05;;;13.40;;
21091;SDS011;10704;42.678;23.288;2023-12-28T09:23:38;21.35;;;13.15;;
21091;SDS011;10704;42.678;23.288;2023-12-28T09:26:05;26.67;;;14.65;;
21091;SDS011;10704;42.678;23.288;2023-12-28T09:28:32;23.58;;;13.75;;
21091;SDS011;10704;42.678;23.288;2023-12-28T09:30:59;22.38;;;13.65;;
21091;SDS011;10704;42.678;23.288;2023-12-28T09:33:26;20.83;;;12.70;;
21091;SDS011;10704;42.678;23.288;2023-12-28T09:35:51;19.27;;;13.45;;
21091;SDS011;10704;42.678;23.288;2023-12-28T09:38:18;22.25;;;14.07;;
21091;SDS011;10704;42.678;23.288;2023-12-28T09:40:44;23.95;;;12.70;;
21091;SDS011;10704;42.678;23.288;2023-12-28T09:43:28;18.48;;;12.88;;
21091;SDS011;10704;42.678;23.288;2023-12-28T09:46:05;24.55;;;14.32;;
21091;SDS011;10704;42.678;23.288;2023-12-28T09:48:33;25.67;;;16.23;;
21091;SDS011;10704;42.678;23.288;2023-12-28T09:51:01;26.15;;;15.30;;
21091;SDS011;10704;42.678;23.288;2023-12-28T09:53:27;28.33;;;16.52;;
21091;SDS011;10704;42.678;23.288;2023-12-28T09:55:54;33.17;;;18.55;;
21091;SDS011;10704;42.678;23.288;2023-12-28T09:58:21;32.30;;;17.77;;
21091;SDS011;10704;42.678;23.288;2023-12-28T10:00:48;31.30;;;20.73;;
21091;SDS011;10704;42.678;23.288;2023-12-28T10:03:15;33.35;;;20.33;;
21091;SDS011;10704;42.678;23.288;2023-12-28T10:05:42;32.53;;;20.55;;
21091;SDS011;10704;42.678;23.288;2023-12-28T10:08:13;37.42;;;20.25;;
21091;SDS011;10704;42.678;23.288;2023-12-28T10:10:40;34.22;;;20.83;;
21091;SDS011;10704;42.678;23.288;2023-12-28T10:13:07;35.20;;;23.48;;
21091;SDS011;10704;42.678;23.288;2023-12-28T10:15:37;39.47;;;23.60;;
21091;SDS011;10704;42.678;23.288;2023-12-28T10:18:04;36.47;;;22.65;;
21091;SDS011;10704;42.678;23.288;2023-12-28T10:20:31;38.28;;;23.00;;
21091;SDS011;10704;42.678;23.288;2023-12-28T10:23:00;41.40;;;24.98;;
21091;SDS011;10704;42.678;23.288;2023-12-28T10:25:30;39.03;;;26.85;;
21091;SDS011;10704;42.678;23.288;2023-12-28T10:27:57;43.33;;;28.45;;
21091;SDS011;10704;42.678;23.288;2023-12-28T10:30:29;41.90;;;27.90;;
21091;SDS011;10704;42.678;23.288;2023-12-28T10:32:55;45.05;;;29.75;;
21091;SDS011;10704;42.678;23.288;2023-12-28T10:35:21;47.97;;;30.13;;
21091;SDS011;10704;42.678;23.288;2023-12-28T10:37:47;45.25;;;29.13;;
21091;SDS011;10704;42.678;23.288;2023-12-28T10:40:20;40.60;;;27.75;;
21091;SDS011;10704;42.678;23.288;2023-12-28T10:45:28;39.95;;;26.55;;
21091;SDS011;10704;42.678;23.288;2023-12-28T10:48:04;42.22;;;27.42;;
21091;SDS011;10704;42.678;23.288;2023-12-28T10:50:37;41.92;;;26.20;;
21091;SDS011;10704;42.678;23.288;2023-12-28T10:53:21;41.25;;;26.80;;
21091;SDS011;10704;42.678;23.288;2023-12-28T10:58:48;42.85;;;28.70;;
21091;SDS011;10704;42.678;23.288;2023-12-28T11:01:19;45.22;;;28.30;;
21091;SDS011;10704;42.678;23.288;2023-12-28T11:03:51;46.67;;;28.77;;
21091;SDS011;10704;42.678;23.288;2023-12-28T11:06:25;45.85;;;27.58;;
21091;SDS011;10704;42.678;23.288;2023-12-28T11:08:53;41.72;;;26.80;;
21091;SDS011;10704;42.678;23.288;2023-12-28T11:11:21;42.40;;;25.67;;
21091;SDS011;10704;42.678;23.288;2023-12-28T11:13:48;41.83;;;25.63;;
21091;SDS011;10704;42.678;23.288;2023-12-28T11:16:16;36.42;;;25.58;;
21091;SDS011;10704;42.678;23.288;2023-12-28T11:18:43;38.15;;;22.27;;
21091;SDS011;10704;42.678;23.288;2023-12-28T11:21:10;36.63;;;22.85;;
21091;SDS011;10704;42.678;23.288;2023-12-28T11:23:36;35.03;;;22.80;;
21091;SDS011;10704;42.678;23.288;2023-12-28T11:26:02;35.50;;;23.33;;
21091;SDS011;10704;42.678;23.288;2023-12-28T11:28:29;31.92;;;22.52;;
21091;SDS011;10704;42.678;23.288;2023-12-28T11:30:56;38.05;;;24.30;;
21091;SDS011;10704;42.678;23.288;2023-12-28T11:33:22;40.75;;;25.67;;
21091;SDS011;10704;42.678;23.288;2023-12-28T11:35:47;45.00;;;26.33;;
21091;SDS011;10704;42.678;23.288;2023-12-28T11:38:13;38.95;;;25.33;;
21091;SDS011;10704;42.678;23.288;2023-12-28T11:40:45;38.50;;;25.13;;
21091;SDS011;10704;42.678;23.288;2023-12-28T11:43:17;41.13;;;27.20;;
21091;SDS011;10704;42.678;23.288;2023-12-28T11:45:50;44.42;;;29.83;;
21091;SDS011;10704;42.678;23.288;2023-12-28T11:48:27;42.28;;;26.50;;
21091;SDS011;10704;42.678;23.288;2023-12-28T11:50:57;40.75;;;26.23;;
21091;SDS011;10704;42.678;23.288;2023-12-28T11:53:24;40.63;;;26.85;;
21091;SDS011;10704;42.678;23.288;2023-12-28T11:55:51;46.70;;;28.02;;
21091;SDS011;10704;42.678;23.288;2023-12-28T11:58:18;38.08;;;25.90;;
21091;SDS011;10704;42.678;23.288;2023-12-28T12:00:44;45.20;;;28.88;;
21091;SDS011;10704;42.678;23.288;2023-12-28T12:03:10;40.70;;;25.90;;
21091;SDS011;10704;42.678;23.288;2023-12-28T12:05:37;47.60;;;28.10;;
21091;SDS011;10704;42.678;23.288;2023-12-28T12:08:04;43.05;;;25.65;;
21091;SDS011;10704;42.678;23.288;2023-12-28T12:10:36;38.67;;;22.52;;
21091;SDS011;10704;42.678;23.288;2023-12-28T12:13:02;34.20;;;22.85;;
21091;SDS011;10704;42.678;23.288;2023-12-28T12:15:29;38.70;;;22.08;;
21091;SDS011;10704;42.678;23.288;2023-12-28T12:17:55;40.72;;;22.80;;
21091;SDS011;10704;42.678;23.288;2023-12-28T12:20:22;38.22;;;23.55;;
21091;SDS011;10704;42.678;23.288;2023-12-28T12:22:48;36.85;;;23.27;;
21091;SDS011;10704;42.678;23.288;2023-12-28T12:25:17;32.80;;;22.15;;
21091;SDS011;10704;42.678;23.288;2023-12-28T12:27:45;35.00;;;22.23;;
21091;SDS011;10704;42.678;23.288;2023-12-28T12:30:11;31.27;;;22.20;;
21091;SDS011;10704;42.678;23.288;2023-12-28T12:32:37;32.58;;;20.40;;
21091;SDS011;10704;42.678;23.288;2023-12-28T12:35:05;33.42;;;20.65;;
21091;SDS011;10704;42.678;23.288;2023-12-28T12:37:31;33.08;;;22.33;;
21091;SDS011;10704;42.678;23.288;2023-12-28T12:39:57;32.83;;;19.00;;
21091;SDS011;10704;42.678;23.288;2023-12-28T12:42:24;33.95;;;19.30;;
21091;SDS011;10704;42.678;23.288;2023-12-28T12:44:50;29.33;;;16.63;;
21091;SDS011;10704;42.678;23.288;2023-12-28T12:47:16;29.23;;;16.33;;
21091;SDS011;10704;42.678;23.288;2023-12-28T12:49:42;32.63;;;18.23;;
21091;SDS011;10704;42.678;23.288;2023-12-28T12:52:09;28.40;;;18.10;;
21091;SDS011;10704;42.678;23.288;2023-12-28T12:54:35;27.17;;;18.02;;
21091;SDS011;10704;42.678;23.288;2023-12-28T12:57:01;31.02;;;19.10;;
21091;SDS011;10704;42.678;23.288;2023-12-28T12:59:28;26.48;;;17.20;;
21091;SDS011;10704;42.678;23.288;2023-12-28T13:01:54;30.83;;;18.73;;
21091;SDS011;10704;42.678;23.288;2023-12-28T13:04:20;30.02;;;19.52;;
21091;SDS011;10704;42.678;23.288;2023-12-28T13:06:46;33.47;;;19.00;;
21091;SDS011;10704;42.678;23.288;2023-12-28T13:09:13;34.17;;;21.02;;
21091;SDS011;10704;42.678;23.288;2023-12-28T13:11:39;30.02;;;18.50;;
21091;SDS011;10704;42.678;23.288;2023-12-28T13:14:05;31.02;;;18.30;;
21091;SDS011;10704;42.678;23.288;2023-12-28T13:16:31;31.67;;;19.58;;
21091;SDS011;10704;42.678;23.288;2023-12-28T13:18:57;29.45;;;18.00;;
21091;SDS011;10704;42.678;23.288;2023-12-28T13:21:23;31.33;;;18.25;;
21091;SDS011;10704;42.678;23.288;2023-12-28T13:23:49;29.80;;;18.20;;
21091;SDS011;10704;42.678;23.288;2023-12-28T13:26:15;28.98;;;18.52;;
21091;SDS011;10704;42.678;23.288;2023-12-28T13:28:41;26.50;;;19.30;;
21091;SDS011;10704;42.678;23.288;2023-12-28T13:31:08;32.22;;;18.83;;
21091;SDS011;10704;42.678;23.288;2023-12-28T13:33:33;30.40;;;19.27;;
21091;SDS011;10704;42.678;23.288;2023-12-28T13:35:59;26.27;;;18.13;;
21091;SDS011;10704;42.678;23.288;2023-12-28T13:38:25;32.38;;;18.13;;
21091;SDS011;10704;42.678;23.288;2023-12-28T13:40:52;29.58;;;19.23;;
21091;SDS011;10704;42.678;23.288;2023-12-28T13:43:18;31.98;;;20.50;;
21091;SDS011;10704;42.678;23.288;2023-12-28T13:45:44;34.28;;;19.17;;
21091;SDS011;10704;42.678;23.288;2023-12-28T13:48:12;32.15;;;19.30;;
21091;SDS011;10704;42.678;23.288;2023-12-28T13:50:38;32.72;;;20.20;;
21091;SDS011;10704;42.678;23.288;2023-12-28T13:53:04;32.47;;;20.85;;
21091;SDS011;10704;42.678;23.288;2023-12-28T13:55:33;32.45;;;20.50;;
21091;SDS011;10704;42.678;23.288;2023-12-28T13:57:59;34.30;;;20.40;;
21091;SDS011;10704;42.678;23.288;2023-12-28T14:00:25;34.05;;;20.35;;
21091;SDS011;10704;42.678;23.288;2023-12-28T14:02:50;37.65;;;20.13;;
21091;SDS011;10704;42.678;23.288;2023-12-28T14:05:18;38.20;;;23.15;;
21091;SDS011;10704;42.678;23.288;2023-12-28T14:07:44;39.40;;;21.85;;
21091;SDS011;10704;42.678;23.288;2023-12-28T14:10:10;35.33;;;21.75;;
21091;SDS011;10704;42.678;23.288;2023-12-28T14:12:36;38.42;;;23.33;;
21091;SDS011;10704;42.678;23.288;2023-12-28T14:15:02;36.50;;;21.17;;
21091;SDS011;10704;42.678;23.288;2023-12-28T14:17:31;42.53;;;23.00;;